Olivebridge, NY (12461)

2:01 AM EDT on July 23, 2017 (GMT -0400)
Shokan | | Change Station

Elev 0 ft 41.95 °N, 74.24 °W | Updated 10 minutes ago

Overcast
Overcast
69.3 °F
Feels Like 69.3 °F
N
1.2
Wind Variable Wind from NW
Gusts 3.1 mph

Today
High -- | Low -- °F
--% Chance of Precip.
Yesterday
High -- | Low -- °F
Precip. -- in
Pressure 29.74 in
Visibility 10.0 miles
Clouds Overcast 7500 ft
Dew Point 65 °F
Humidity 85%
Rainfall 0.01 in
Snow Depth Not available.
5:42 AM 8:24 PM
Waning Crescent, 0% visible
METAR KPOU 230553Z AUTO 36003KT 10SM OVC075 22/19 A2975 RMK AO2 SLP069 T02170189 10239 20217 58009
Pressure 29.74 in
Visibility 10.0 miles
Clouds Overcast 7500 ft
Dew Point 65 °F
Humidity 85%
Rainfall 0.01 in
Snow Depth Not available.
5:42 AM 8:24 PM
Waning Crescent, 0% visible
METAR KPOU 230553Z AUTO 36003KT 10SM OVC075 22/19 A2975 RMK AO2 SLP069 T02170189 10239 20217 58009

Get Severe Weather Alerts

Thanks for signing up!

Be on the lookout for a verification email in your inbox.

You'll start receiving the daily forecast at 6 AM.

×

10-Day Weather Forecast

Almanac

Astronomy

Jul. 23, 2017 Rise Set
Actual Time
Civil Twilight
Nautical Twilight
Astronomical Twilight
Moon
Length of Visible Light
Length of Day
Tomorrow will be .
, % of the Moon is Illuminated

Today's Extremes

State Highs State Lows

Community

WunderPhotos

Category 6

Welcome to Category 6. This is the collective home for Weather Underground's featured writeups by Dr. Jeff Masters (right), Bob Henson (left), Chris Burt, and other regular contributors.

Nearby

Air Quality

  Air Quality AQ Index Pollutant
Not available.

Snow Depth

Station Depth Elevation

Earthquake Activity

City Distance Mag. Time & Date
Minimum magnitude displayed is 2.5.

Coastal Water Temperatures

Place Temperature

Stations

Nearby Weather Stations

Station Location Temp. Windchill Dew Point Humidity Wind Precip. Elev Updated Type
                   

Watches & Warnings

There are currently no watches in effect.